createdAt,value
2023-05-25T00:00:00.237Z,99314.29
2023-05-25T00:03:00.340Z,99316.05
2023-05-25T00:06:01.143Z,99316.55
2023-05-25T00:09:01.160Z,99316.77
2023-05-25T00:12:01.158Z,99315.11
2023-05-25T00:15:02.163Z,99315.02
2023-05-25T00:18:02.216Z,99317.23
2023-05-25T00:21:02.152Z,99319.19
2023-05-25T00:24:03.175Z,99319.19
2023-05-25T00:27:03.189Z,99320.94
2023-05-25T00:30:03.224Z,99318.33
2023-05-25T00:33:04.225Z,99320.41
2023-05-25T00:36:04.226Z,99320.36
2023-05-25T00:39:04.200Z,99316.81
2023-05-25T00:42:05.227Z,99313.39
2023-05-25T00:45:06.223Z,99306.98
2023-05-25T00:48:06.277Z,99308.92
2023-05-25T00:51:08.234Z,99310.75
2023-05-25T00:54:08.443Z,99315.23
2023-05-25T00:57:16.248Z,99320.22
2023-05-25T01:00:17.256Z,99318.69
2023-05-25T01:03:27.441Z,99315.04
2023-05-25T01:06:33.264Z,99312.48
2023-05-25T01:09:35.265Z,99311.30
2023-05-25T01:12:36.268Z,99310.64
2023-05-25T01:15:37.280Z,99314.79
2023-05-25T01:18:37.287Z,99317.09
2023-05-25T01:21:56.324Z,99316.30
2023-05-25T01:24:59.293Z,99310.75
2023-05-25T01:28:16.339Z,99312.62
2023-05-25T01:31:16.287Z,99312.19
2023-05-25T01:34:17.312Z,99307.06
2023-05-25T01:37:19.305Z,99305.91
2023-05-25T01:40:20.338Z,99306.21
2023-05-25T01:43:20.336Z,99305.66
2023-05-25T01:46:32.387Z,99308.30
2023-05-25T01:49:40.339Z,99310.18
2023-05-25T01:52:46.378Z,99317.40
2023-05-25T01:55:52.349Z,99316.66
2023-05-25T01:58:55.347Z,99323.66
2023-05-25T02:01:55.549Z,99321.50
2023-05-25T02:04:55.356Z,99323.62
2023-05-25T02:07:56.373Z,99324.86
2023-05-25T02:10:51.378Z,99325.27
2023-05-25T02:13:51.393Z,99325.66
2023-05-25T02:16:53.357Z,99322.88
2023-05-25T02:19:59.596Z,99320.76
2023-05-25T02:23:00.392Z,99313.02
2023-05-25T02:26:00.425Z,99311.86
2023-05-25T02:29:00.435Z,99318.94
2023-05-25T02:32:00.425Z,99325.20
2023-05-25T02:35:00.426Z,99331.76
2023-05-25T02:38:00.446Z,99331.68
2023-05-25T02:41:00.478Z,99334.08
2023-05-25T02:44:00.445Z,99337.02
2023-05-25T02:47:00.523Z,99337.98
2023-05-25T02:50:00.473Z,99344.12
2023-05-25T02:53:04.473Z,99342.73
2023-05-25T02:56:04.461Z,99341.70
2023-05-25T02:59:04.480Z,99339.07
2023-05-25T03:02:04.473Z,99337.83
2023-05-25T03:05:05.488Z,99336.80
2023-05-25T03:08:05.513Z,99339.45
2023-05-25T03:11:05.761Z,99338.64
2023-05-25T03:14:05.533Z,99337.67
2023-05-25T03:17:05.557Z,99338.05
2023-05-25T03:20:05.553Z,99341.98
2023-05-25T03:23:08.521Z,99342.70
2023-05-25T03:26:08.515Z,99337.60
2023-05-25T03:29:08.537Z,99336.05
2023-05-25T03:32:08.602Z,99341.41
2023-05-25T03:35:08.589Z,99337.58
2023-05-25T03:38:08.541Z,99344.67
2023-05-25T03:41:08.546Z,99343.77
2023-05-25T03:44:09.536Z,99341.98
2023-05-25T03:47:09.539Z,99335.02
2023-05-25T03:50:09.547Z,99339.87
2023-05-25T03:53:09.581Z,99344.58
2023-05-25T03:56:09.558Z,99343.27
2023-05-25T03:59:09.715Z,99338.52
2023-05-25T04:02:09.628Z,99342.03
2023-05-25T04:05:10.588Z,99338.56
2023-05-25T04:08:10.576Z,99340.42
2023-05-25T04:11:12.586Z,99342.09
2023-05-25T04:14:13.605Z,99342.64
2023-05-25T04:17:14.604Z,99343.58
2023-05-25T04:20:15.640Z,99347.86
2023-05-25T04:23:15.629Z,99354.63
2023-05-25T04:26:16.613Z,99355.35
2023-05-25T04:29:20.667Z,99360.02
2023-05-25T04:32:46.754Z,99360.00
2023-05-25T04:36:09.687Z,99360.39
2023-05-25T04:39:09.668Z,99361.36
2023-05-25T04:42:13.709Z,99360.42
2023-05-25T04:45:13.678Z,99363.92
2023-05-25T04:48:13.682Z,99364.13
2023-05-25T04:51:14.715Z,99361.59
2023-05-25T04:54:14.690Z,99362.06
2023-05-25T04:57:15.702Z,99355.92
2023-05-25T05:00:17.739Z,99357.40
2023-05-25T05:03:19.905Z,99357.23
2023-05-25T05:06:19.697Z,99355.80
2023-05-25T05:09:19.759Z,99358.44
2023-05-25T05:12:22.745Z,99362.88
2023-05-25T05:15:25.763Z,99363.00
2023-05-25T05:18:26.739Z,99360.40
2023-05-25T05:21:26.769Z,99360.34
2023-05-25T05:24:27.752Z,99358.41
2023-05-25T05:27:29.898Z,99362.10
2023-05-25T05:30:36.784Z,99365.67
2023-05-25T05:33:37.812Z,99366.36
2023-05-25T05:36:56.038Z,99366.23
2023-05-25T05:40:00.059Z,99366.09
2023-05-25T05:43:01.822Z,99364.73
2023-05-25T05:46:01.859Z,99366.63
2023-05-25T05:49:02.811Z,99371.41
2023-05-25T05:52:02.807Z,99372.23
2023-05-25T05:55:02.836Z,99372.50
2023-05-25T05:58:04.847Z,99376.89
2023-05-25T06:01:05.860Z,99376.96
2023-05-25T06:04:05.858Z,99375.98
2023-05-25T06:07:05.892Z,99378.95
2023-05-25T06:10:06.865Z,99381.08
2023-05-25T06:13:09.506Z,99383.52
2023-05-25T06:16:10.951Z,99382.63
2023-05-25T06:19:10.890Z,99383.21
2023-05-25T06:22:10.908Z,99380.13
2023-05-25T06:25:10.916Z,99379.91
2023-05-25T06:28:10.912Z,99381.16
2023-05-25T06:31:11.073Z,99379.56
2023-05-25T06:34:14.972Z,99382.45
2023-05-25T06:37:14.957Z,99378.78
2023-05-25T06:40:17.985Z,99376.88
2023-05-25T06:43:17.947Z,99374.88
2023-05-25T06:46:34.974Z,99373.69
2023-05-25T06:49:34.952Z,99374.98
2023-05-25T06:52:34.955Z,99377.37
2023-05-25T06:55:35.127Z,99374.34
2023-05-25T06:59:10.014Z,99374.33
2023-05-25T07:02:09.959Z,99374.34
2023-05-25T07:05:11.975Z,99378.29
2023-05-25T07:08:12.008Z,99375.56
2023-05-25T07:11:12.004Z,99371.95
2023-05-25T07:14:11.986Z,99376.31
2023-05-25T07:17:12.163Z,99381.46
2023-05-25T07:20:12.059Z,99384.36
2023-05-25T07:23:12.025Z,99381.98
2023-05-25T07:26:12.034Z,99382.88
2023-05-25T07:29:12.036Z,99383.84
2023-05-25T07:32:12.045Z,99387.42
2023-05-25T07:35:12.046Z,99385.11
2023-05-25T07:38:16.066Z,99388.73
2023-05-25T07:41:16.055Z,99392.15
2023-05-25T07:44:17.071Z,99390.20
2023-05-25T07:47:17.083Z,99385.38
2023-05-25T07:50:17.073Z,99387.26
2023-05-25T07:53:17.084Z,99380.54
2023-05-25T07:56:17.059Z,99380.26
2023-05-25T07:59:17.074Z,99383.80
2023-05-25T08:02:17.146Z,99376.27
2023-05-25T08:05:17.203Z,99383.36
2023-05-25T08:08:17.105Z,99380.09
2023-05-25T08:11:18.137Z,99377.48
2023-05-25T08:14:18.131Z,99366.08
2023-05-25T08:17:18.207Z,99373.73
2023-05-25T08:20:20.236Z,99374.71
2023-05-25T08:23:20.147Z,99368.83
2023-05-25T08:26:37.921Z,99364.54
2023-05-25T08:29:40.126Z,99364.52
2023-05-25T08:32:40.213Z,99369.73
2023-05-25T08:35:40.130Z,99372.15
2023-05-25T08:38:40.198Z,99375.52
2023-05-25T08:41:40.268Z,99375.83
2023-05-25T08:44:41.173Z,99373.01
2023-05-25T08:47:44.185Z,99372.59
2023-05-25T08:50:46.226Z,99369.41
2023-05-25T08:53:49.196Z,99372.10
2023-05-25T08:57:04.203Z,99373.13
2023-05-25T09:00:19.269Z,99375.31
2023-05-25T09:03:31.473Z,99374.53
2023-05-25T09:06:33.211Z,99365.19
2023-05-25T09:09:35.271Z,99364.35
2023-05-25T09:12:38.216Z,99358.02
2023-05-25T09:15:38.254Z,99354.27
2023-05-25T09:18:38.234Z,99351.77
2023-05-25T09:21:39.219Z,99351.11
2023-05-25T09:24:39.244Z,99354.64
2023-05-25T09:27:39.284Z,99357.11
2023-05-25T09:30:42.460Z,99363.90
2023-05-25T09:33:44.261Z,99365.08
2023-05-25T09:36:47.429Z,99367.25
2023-05-25T09:39:48.384Z,99356.33
2023-05-25T09:42:49.288Z,99356.97
2023-05-25T09:45:51.293Z,99351.66
2023-05-25T09:48:54.301Z,99337.01
2023-05-25T09:51:54.309Z,99347.31
2023-05-25T09:55:02.407Z,99346.86
2023-05-25T09:58:07.314Z,99342.70
2023-05-25T10:01:07.384Z,99336.20
2023-05-25T10:04:08.324Z,99330.89
2023-05-25T10:07:10.318Z,99323.17
2023-05-25T10:10:17.395Z,99328.92
2023-05-25T10:13:22.649Z,99323.73
2023-05-25T10:16:25.453Z,99320.85
2023-05-25T10:19:32.415Z,99309.42
2023-05-25T10:22:43.374Z,99316.59
2023-05-25T10:25:52.391Z,99312.64
2023-05-25T10:28:57.392Z,99315.98
2023-05-25T10:31:58.386Z,99324.96
2023-05-25T10:34:59.400Z,99315.21
2023-05-25T10:38:00.411Z,99318.73
2023-05-25T10:41:01.431Z,99320.75
2023-05-25T10:44:03.385Z,99319.02
2023-05-25T10:47:04.465Z,99305.41
2023-05-25T10:50:12.438Z,99312.42
2023-05-25T10:53:22.659Z,99315.10
2023-05-25T10:56:22.427Z,99311.52
2023-05-25T10:59:26.438Z,99302.17
2023-05-25T11:02:31.468Z,99311.63
2023-05-25T11:05:40.439Z,99303.25
2023-05-25T11:09:05.461Z,99304.70
2023-05-25T11:12:05.492Z,99299.25
2023-05-25T11:18:50.491Z,99292.05
2023-05-25T11:21:55.499Z,99279.09
2023-05-25T11:24:56.511Z,99280.53
2023-05-25T11:28:01.536Z,99273.02
2023-05-25T11:31:01.670Z,99279.60
2023-05-25T11:34:03.514Z,99276.40
2023-05-25T11:37:12.207Z,99290.42
2023-05-25T11:40:12.548Z,99283.67
2023-05-25T11:43:14.505Z,99283.44
2023-05-25T11:46:14.549Z,99282.30
2023-05-25T11:49:14.535Z,99291.52
2023-05-25T11:52:18.581Z,99288.18
2023-05-25T11:55:27.565Z,99290.36
2023-05-25T11:58:27.540Z,99295.70
2023-05-25T12:01:27.550Z,99284.28
2023-05-25T12:04:27.654Z,99280.41
2023-05-25T12:07:27.568Z,99281.80
2023-05-25T12:10:28.766Z,99285.54
2023-05-25T12:13:28.590Z,99283.29
2023-05-25T12:16:28.935Z,99286.52
2023-05-25T12:19:29.596Z,99283.81
2023-05-25T12:22:29.730Z,99274.38
2023-05-25T12:25:46.584Z,99264.33
2023-05-25T12:28:51.626Z,99252.48
2023-05-25T12:31:51.658Z,99262.02
2023-05-25T12:34:51.625Z,99259.78
2023-05-25T12:37:52.652Z,99267.75
2023-05-25T12:40:56.641Z,99264.75
2023-05-25T12:43:56.668Z,99265.77
2023-05-25T12:46:49.830Z,99268.11
2023-05-25T12:49:49.690Z,99268.40
2023-05-25T12:52:50.676Z,99263.77
2023-05-25T12:55:50.655Z,99267.91
2023-05-25T12:58:50.934Z,99266.80
2023-05-25T13:01:54.942Z,99266.07
2023-05-25T13:04:55.978Z,99257.23
2023-05-25T13:07:55.697Z,99254.78
2023-05-25T13:10:56.693Z,99265.31
2023-05-25T13:13:56.698Z,99263.46
2023-05-25T13:16:58.786Z,99260.17
2023-05-25T13:19:58.755Z,99267.70
2023-05-25T13:23:03.742Z,99271.25
2023-05-25T13:26:03.738Z,99278.57
2023-05-25T13:29:03.731Z,99287.14
2023-05-25T13:32:03.769Z,99284.58
2023-05-25T13:35:05.738Z,99283.45
2023-05-25T13:38:05.806Z,99278.54
2023-05-25T13:41:05.757Z,99281.81
2023-05-25T13:44:05.773Z,99281.98
2023-05-25T13:47:05.805Z,99283.64
2023-05-25T13:50:05.778Z,99281.72
2023-05-25T13:53:05.793Z,99274.72
2023-05-25T13:56:06.802Z,99268.28
2023-05-25T13:59:06.799Z,99267.79
2023-05-25T14:02:06.870Z,99260.79
2023-05-25T14:05:06.812Z,99261.42
2023-05-25T14:08:08.790Z,99269.14
2023-05-25T14:11:08.821Z,99259.09
2023-05-25T14:14:13.748Z,99267.30
2023-05-25T14:17:19.833Z,99262.79
2023-05-25T14:20:26.856Z,99269.70
2023-05-25T14:23:26.855Z,99271.45
2023-05-25T14:26:27.863Z,99265.80
2023-05-25T14:29:27.864Z,99262.39
2023-05-25T14:32:27.895Z,99266.86
2023-05-25T14:35:27.895Z,99265.51
2023-05-25T14:38:27.865Z,99258.63
2023-05-25T14:41:28.919Z,99258.27
2023-05-25T14:44:28.891Z,99255.74
2023-05-25T14:47:28.896Z,99256.70
2023-05-25T14:50:30.466Z,99264.17
2023-05-25T14:53:30.880Z,99267.84
2023-05-25T14:56:33.961Z,99266.72
2023-05-25T14:59:33.939Z,99269.16
2023-05-25T15:02:35.032Z,99264.73
2023-05-25T15:05:34.912Z,99264.52
2023-05-25T15:08:35.932Z,99268.60
2023-05-25T15:11:35.934Z,99275.46
2023-05-25T15:14:35.952Z,99272.69
2023-05-25T15:17:36.984Z,99273.56
2023-05-25T15:20:37.056Z,99272.81
2023-05-25T15:23:37.985Z,99271.23
2023-05-25T15:26:37.985Z,99270.00
2023-05-25T15:29:37.973Z,99270.05
2023-05-25T15:32:38.091Z,99270.21
2023-05-25T15:35:37.990Z,99275.91
2023-05-25T15:38:38.998Z,99275.59
2023-05-25T15:41:40.129Z,99280.17
2023-05-25T15:44:41.034Z,99278.20
2023-05-25T15:47:41.078Z,99276.30
2023-05-25T15:50:41.022Z,99273.08
2023-05-25T15:53:43.102Z,99268.70
2023-05-25T15:56:43.035Z,99267.27
2023-05-25T15:59:44.049Z,99272.23
2023-05-25T16:02:45.072Z,99267.70
2023-05-25T16:05:45.319Z,99262.52
2023-05-25T16:08:46.055Z,99264.85
2023-05-25T16:11:46.057Z,99268.99
2023-05-25T16:14:47.070Z,99269.02
2023-05-25T16:17:47.087Z,99267.34
2023-05-25T16:20:47.264Z,99266.19
2023-05-25T16:23:47.125Z,99267.63
2023-05-25T16:26:47.111Z,99266.70
2023-05-25T16:29:47.108Z,99269.23
2023-05-25T16:32:47.201Z,99269.98
2023-05-25T16:35:47.298Z,99269.84
2023-05-25T16:38:48.128Z,99277.02
2023-05-25T16:41:50.619Z,99273.67
2023-05-25T16:44:51.146Z,99269.60
2023-05-25T16:47:51.218Z,99270.98
2023-05-25T16:50:51.120Z,99272.09
2023-05-25T16:53:52.512Z,99269.23
2023-05-25T16:56:54.138Z,99266.58
2023-05-25T16:59:54.151Z,99264.92
2023-05-25T17:02:56.297Z,99263.95
2023-05-25T17:05:57.157Z,99264.05
2023-05-25T17:08:57.168Z,99262.79
2023-05-25T17:11:57.178Z,99262.98
2023-05-25T17:14:57.187Z,99265.27
2023-05-25T17:17:58.236Z,99266.58
2023-05-25T17:20:58.228Z,99265.43
2023-05-25T17:23:58.202Z,99268.52
2023-05-25T17:26:58.212Z,99272.64
2023-05-25T17:29:58.201Z,99271.52
2023-05-25T17:32:58.267Z,99270.55
2023-05-25T17:35:58.231Z,99269.52
2023-05-25T17:38:58.270Z,99274.71
2023-05-25T17:42:00.224Z,99275.88
2023-05-25T17:45:01.266Z,99277.61
2023-05-25T17:48:03.303Z,99280.91
2023-05-25T17:51:03.261Z,99283.16
2023-05-25T17:54:03.308Z,99279.66
2023-05-25T17:57:03.287Z,99279.36
2023-05-25T18:00:04.278Z,99274.80
2023-05-25T18:03:07.375Z,99281.45
2023-05-25T18:06:07.288Z,99286.89
2023-05-25T18:09:07.274Z,99293.20
2023-05-25T18:12:07.766Z,99294.41
2023-05-25T18:15:08.332Z,99293.61
2023-05-25T18:18:09.335Z,99297.64
2023-05-25T18:21:09.326Z,99300.34
2023-05-25T18:24:09.340Z,99301.86
2023-05-25T18:27:09.319Z,99301.14
2023-05-25T18:30:09.375Z,99301.38
2023-05-25T18:33:09.382Z,99304.48
2023-05-25T18:36:09.341Z,99303.40
2023-05-25T18:39:09.351Z,99302.02
2023-05-25T18:42:10.398Z,99303.13
2023-05-25T18:45:10.401Z,99305.98
2023-05-25T18:48:16.784Z,99308.77
2023-05-25T18:51:25.671Z,99307.23
2023-05-25T18:54:42.381Z,99302.84
2023-05-25T18:57:42.469Z,99307.98
2023-05-25T19:00:43.512Z,99309.40
2023-05-25T19:03:43.583Z,99304.68
2023-05-25T19:06:43.457Z,99305.69
2023-05-25T19:09:43.442Z,99304.63
2023-05-25T19:12:43.408Z,99302.88
2023-05-25T19:15:43.711Z,99301.84
2023-05-25T19:18:45.475Z,99301.88
2023-05-25T19:21:45.470Z,99302.92
2023-05-25T19:24:48.608Z,99306.94
2023-05-25T19:27:50.491Z,99303.77
2023-05-25T19:30:51.509Z,99302.98
2023-05-25T19:33:51.437Z,99303.94
2023-05-25T19:37:00.094Z,99299.13
2023-05-25T19:40:10.473Z,99300.56
2023-05-25T19:43:10.492Z,99298.63
2023-05-25T19:46:10.518Z,99304.67
2023-05-25T19:49:11.529Z,99304.35
2023-05-25T19:52:11.589Z,99306.94
2023-05-25T19:55:11.519Z,99305.23
2023-05-25T19:58:11.505Z,99307.16
2023-05-25T20:01:11.561Z,99303.27
2023-05-25T20:04:11.521Z,99301.73
2023-05-25T20:07:11.522Z,99300.63
2023-05-25T20:10:12.550Z,99301.02
2023-05-25T20:13:12.555Z,99305.78
2023-05-25T20:16:15.611Z,99309.73
2023-05-25T20:19:20.503Z,99313.48
2023-05-25T20:22:23.539Z,99307.70
2023-05-25T20:25:23.546Z,99307.96
2023-05-25T20:28:23.559Z,99308.23
2023-05-25T20:31:23.620Z,99308.13
2023-05-25T20:34:23.616Z,99311.54
2023-05-25T20:37:23.583Z,99312.11
2023-05-25T20:40:23.642Z,99314.73
2023-05-25T20:43:23.667Z,99311.68
2023-05-25T20:46:23.638Z,99307.98
2023-05-25T20:49:25.908Z,99307.56
2023-05-25T20:52:27.625Z,99311.14
2023-05-25T20:55:27.621Z,99308.05
2023-05-25T20:58:28.886Z,99309.19
2023-05-25T21:01:28.703Z,99302.67
2023-05-25T21:04:30.450Z,99298.52
2023-05-25T21:07:31.641Z,99296.32
2023-05-25T21:10:34.628Z,99296.77
2023-05-25T21:13:35.663Z,99296.42
2023-05-25T21:16:35.758Z,99295.09
2023-05-25T21:19:35.671Z,99300.01
2023-05-25T21:22:35.680Z,99300.52
2023-05-25T21:25:35.688Z,99299.43
2023-05-25T21:28:36.679Z,99296.70
2023-05-25T21:31:37.730Z,99297.36
2023-05-25T21:34:37.697Z,99298.38
2023-05-25T21:37:37.691Z,99293.35
2023-05-25T21:40:37.692Z,99296.95
2023-05-25T21:43:38.700Z,99293.37
2023-05-25T21:46:38.926Z,99284.52
2023-05-25T21:49:38.738Z,99284.59
2023-05-25T21:52:44.752Z,99279.40
2023-05-25T21:55:44.906Z,99281.55
2023-05-25T21:58:44.742Z,99282.52
2023-05-25T22:01:45.728Z,99283.52
2023-05-25T22:04:45.765Z,99282.51
2023-05-25T22:07:45.781Z,99286.39
2023-05-25T22:10:45.773Z,99283.20
2023-05-25T22:13:45.756Z,99278.30
2023-05-25T22:16:45.915Z,99281.85
2023-05-25T22:19:55.318Z,99283.35
2023-05-25T22:23:06.811Z,99278.52
2023-05-25T22:26:06.819Z,99277.69
2023-05-25T22:29:06.792Z,99273.73
2023-05-25T22:32:06.835Z,99269.52
2023-05-25T22:35:06.860Z,99271.16
2023-05-25T22:38:06.837Z,99272.39
2023-05-25T22:41:06.828Z,99276.85
2023-05-25T22:44:07.911Z,99284.42
2023-05-25T22:47:07.912Z,99287.73
2023-05-25T22:50:07.894Z,99289.80
2023-05-25T22:53:07.917Z,99285.43
2023-05-25T22:56:14.853Z,99288.20
2023-05-25T22:59:14.865Z,99285.86
2023-05-25T23:02:14.898Z,99281.57
2023-05-25T23:05:15.862Z,99277.23
2023-05-25T23:08:15.885Z,99278.33
2023-05-25T23:11:15.867Z,99278.93
2023-05-25T23:14:16.896Z,99278.88
2023-05-25T23:17:16.904Z,99277.95
2023-05-25T23:20:16.935Z,99274.97
2023-05-25T23:23:16.919Z,99272.34
2023-05-25T23:26:16.914Z,99270.40
2023-05-25T23:29:16.905Z,99264.00
2023-05-25T23:32:16.917Z,99262.89
2023-05-25T23:35:17.933Z,99264.48
2023-05-25T23:38:17.937Z,99263.84
2023-05-25T23:41:17.928Z,99265.81
2023-05-25T23:44:17.954Z,99262.56
2023-05-25T23:47:17.945Z,99263.23
2023-05-25T23:50:21.144Z,99267.83
2023-05-25T23:53:20.969Z,99268.30
2023-05-25T23:56:21.034Z,99269.52
2023-05-25T23:59:20.964Z,99269.34
